Time;durP1;ratioP1;P1;durP2;ratioP2;P2;SDS_P1;SDS_P2;PMS_P1;PMS_P2;Temp;Humidity;BMP_temperature;BMP_pressure;BME280_temperature;BME280_humidity;BME280_pressure;Samples;Min_cycle;Max_cycle;Signal;HPM_P1;HPM_P2
2023/12/24 00:03:57;;;;;;;3.57;1.90;;;-0.30;1.00;;;;;;9821803;30;20536;-83
2023/12/24 00:09:18;;;;;;;5.03;1.40;;;-0.30;1.00;;;;;;9822474;30;20227;-80
2023/12/24 00:14:40;;;;;;;4.33;1.60;;;-0.40;1.00;;;;;;9805308;30;20301;-79
2023/12/24 00:20:01;;;;;;;5.23;2.03;;;-0.40;1.00;;;;;;9823517;30;20277;-80
2023/12/24 00:25:22;;;;;;;4.30;1.60;;;-0.40;1.00;;;;;;9821452;30;20224;-81
2023/12/24 00:30:45;;;;;;;5.67;2.50;;;-0.40;1.00;;;;;;9809049;30;20327;-80
2023/12/24 00:36:06;;;;;;;2.80;1.43;;;-0.50;1.00;;;;;;9773082;30;20209;-80
2023/12/24 00:41:30;;;;;;;4.83;1.87;;;-0.40;1.00;;;;;;9773485;30;20240;-81
2023/12/24 00:46:51;;;;;;;4.47;1.67;;;-0.40;1.00;;;;;;9772810;30;20396;-82
2023/12/24 00:52:12;;;;;;;6.63;2.20;;;-0.40;1.00;;;;;;9784680;30;20246;-80
2023/12/24 00:57:36;;;;;;;3.70;1.80;;;-0.40;1.00;;;;;;9797261;30;20232;-84
2023/12/24 01:02:58;;;;;;;4.97;1.97;;;-0.40;1.00;;;;;;9802609;30;20393;-80
2023/12/24 01:08:20;;;;;;;6.30;2.30;;;-0.40;1.00;;;;;;9808111;30;20522;-81
2023/12/24 01:13:41;;;;;;;5.03;1.97;;;-0.40;1.00;;;;;;9795369;30;20232;-81
2023/12/24 01:19:02;;;;;;;6.40;2.33;;;-0.40;1.00;;;;;;9820427;30;20431;-80
2023/12/24 01:24:23;;;;;;;6.47;2.00;;;-0.40;1.00;;;;;;9820477;30;20513;-88
2023/12/24 01:29:44;;;;;;;4.77;1.73;;;-0.40;1.00;;;;;;9807806;30;20216;-86
2023/12/24 01:35:06;;;;;;;3.80;2.07;;;-0.40;1.00;;;;;;9794789;30;20243;-89
2023/12/24 01:40:27;;;;;;;4.20;1.83;;;-0.50;1.00;;;;;;9808429;30;20201;-89
2023/12/24 01:45:49;;;;;;;3.57;1.73;;;-0.50;7.50;;;;;;9807589;30;20282;-81
2023/12/24 01:51:10;;;;;;;6.60;1.97;;;-0.50;84.30;;;;;;9818938;30;20255;-80
2023/12/24 01:56:32;;;;;;;6.47;2.03;;;-0.50;44.80;;;;;;9794515;30;20217;-81
2023/12/24 02:01:54;;;;;;;4.20;1.83;;;-0.50;61.40;;;;;;9806135;30;20231;-84
2023/12/24 02:07:15;;;;;;;7.03;2.10;;;-0.50;96.00;;;;;;9819000;30;20204;-82
2023/12/24 02:12:37;;;;;;;4.50;2.17;;;-0.40;23.10;;;;;;9806092;30;20290;-82
2023/12/24 02:17:59;;;;;;;3.87;1.63;;;-0.50;99.90;;;;;;9818949;30;20523;-88
2023/12/24 02:23:22;;;;;;;2.63;1.30;;;-0.50;99.90;;;;;;9807294;30;20273;-89
2023/12/24 02:28:52;;;;;;;3.60;1.53;;;-0.50;99.90;;;;;;9793296;30;20287;-82
2023/12/24 02:34:16;;;;;;;4.63;1.50;;;-0.50;99.90;;;;;;9806029;30;20226;-85
2023/12/24 02:39:39;;;;;;;4.50;1.70;;;-0.50;99.90;;;;;;9805788;30;20288;-88
2023/12/24 02:44:59;;;;;;;5.40;1.70;;;-0.50;99.90;;;;;;9818450;30;20224;-87
2023/12/24 02:50:21;;;;;;;3.47;1.53;;;-0.50;99.90;;;;;;9815830;30;20272;-82
2023/12/24 02:55:43;;;;;;;4.73;1.63;;;-0.50;99.90;;;;;;9803959;30;20308;-89
2023/12/24 03:01:04;;;;;;;4.47;1.70;;;-0.50;99.90;;;;;;9817939;30;20226;-84
2023/12/24 03:06:25;;;;;;;2.77;1.30;;;-0.50;99.90;;;;;;9805351;30;20252;-82
2023/12/24 03:11:47;;;;;;;4.47;1.60;;;-0.40;99.90;;;;;;9781879;30;20248;-84
2023/12/24 03:17:08;;;;;;;6.23;1.70;;;-0.50;99.90;;;;;;9803790;30;20255;-80
2023/12/24 03:22:29;;;;;;;4.27;1.50;;;-0.50;99.90;;;;;;9804997;30;20232;-81
2023/12/24 03:27:51;;;;;;;4.33;1.47;;;-0.50;99.90;;;;;;9817248;30;20241;-80
2023/12/24 03:33:13;;;;;;;5.80;1.60;;;-0.50;99.90;;;;;;9817086;30;20283;-89
2023/12/24 03:38:36;;;;;;;4.70;1.90;;;-0.50;99.90;;;;;;9817801;30;20208;-88
2023/12/24 03:43:57;;;;;;;7.20;1.53;;;-0.60;99.90;;;;;;9804911;30;20218;-87
2023/12/24 03:49:20;;;;;;;3.33;1.00;;;-0.60;99.90;;;;;;9804330;30;20488;-89
2023/12/24 03:54:41;;;;;;;4.10;1.33;;;-0.70;99.90;;;;;;9804670;30;20237;-89
2023/12/24 04:00:03;;;;;;;4.40;1.40;;;-0.70;99.90;;;;;;9819932;30;20201;-89
2023/12/24 04:05:28;;;;;;;5.60;1.70;;;-0.70;99.90;;;;;;9823713;30;20227;-81
2023/12/24 04:10:50;;;;;;;3.57;1.30;;;-0.60;1.00;;;;;;9810584;30;20522;-81
2023/12/24 04:16:11;;;;;;;3.83;1.60;;;-0.60;99.90;;;;;;9810054;30;20213;-89
2023/12/24 04:21:33;;;;;;;6.97;1.53;;;-0.60;99.90;;;;;;9823300;30;20463;-87
2023/12/24 04:26:54;;;;;;;7.00;1.47;;;-0.60;99.90;;;;;;9822517;30;20237;-80
2023/12/24 04:32:17;;;;;;;6.87;1.40;;;-0.50;1.00;;;;;;9822101;30;20233;-80
2023/12/24 04:37:38;;;;;;;2.40;1.27;;;-0.50;99.90;;;;;;9821871;30;20523;-80
2023/12/24 04:42:59;;;;;;;4.30;1.67;;;-0.50;1.00;;;;;;9809135;30;20214;-80
2023/12/24 04:48:21;;;;;;;9.17;1.90;;;-0.40;99.90;;;;;;9820217;30;20241;-79
2023/12/24 04:53:42;;;;;;;4.97;1.77;;;-0.50;1.00;;;;;;9807946;30;20300;-81
2023/12/24 04:59:04;;;;;;;5.13;2.90;;;-0.50;1.00;;;;;;9808245;30;20240;-80
2023/12/24 05:04:27;;;;;;;7.70;3.40;;;-0.50;1.00;;;;;;9820861;30;20279;-80
2023/12/24 05:09:50;;;;;;;9.37;3.83;;;-0.50;99.90;;;;;;9807259;30;20286;-80
2023/12/24 05:15:11;;;;;;;12.57;4.63;;;-0.40;99.90;;;;;;9788235;30;20233;-80
2023/12/24 05:20:33;;;;;;;9.73;4.17;;;-0.50;99.90;;;;;;9795615;30;20229;-79
2023/12/24 05:25:54;;;;;;;8.73;3.50;;;-0.50;99.90;;;;;;9820844;30;20504;-81
2023/12/24 05:31:15;;;;;;;11.67;4.30;;;-0.50;1.00;;;;;;9820178;30;20233;-80
2023/12/24 05:36:38;;;;;;;7.10;3.03;;;-0.50;1.00;;;;;;9794389;30;20242;-79
2023/12/24 05:41:59;;;;;;;9.87;3.53;;;-0.50;99.90;;;;;;9820308;30;20442;-79
2023/12/24 05:47:20;;;;;;;9.40;3.50;;;-0.40;99.90;;;;;;9806889;30;20256;-80
2023/12/24 05:52:42;;;;;;;6.70;3.33;;;-0.60;1.00;;;;;;9794713;30;20248;-79
2023/12/24 05:58:03;;;;;;;9.47;3.53;;;-0.50;99.90;;;;;;9806663;30;20263;-80
2023/12/24 06:03:25;;;;;;;8.00;4.20;;;-0.50;99.90;;;;;;9794202;30;20210;-79
2023/12/24 06:08:46;;;;;;;10.50;4.97;;;-0.50;99.90;;;;;;9817591;30;20210;-80
2023/12/24 06:14:07;;;;;;;11.67;5.97;;;-0.50;1.00;;;;;;9813858;30;20244;-80
2023/12/24 06:19:28;;;;;;;13.77;6.23;;;-0.40;7.40;;;;;;9818141;30;20264;-80
2023/12/24 06:24:50;;;;;;;14.47;5.50;;;-0.40;99.90;;;;;;9804826;30;20443;-81
2023/12/24 06:30:12;;;;;;;11.37;5.17;;;-0.30;99.90;;;;;;9819087;30;20206;-88
2023/12/24 06:35:33;;;;;;;17.90;8.27;;;-0.40;1.00;;;;;;9816843;30;20229;-79
2023/12/24 06:40:54;;;;;;;13.83;7.50;;;-0.30;1.00;;;;;;9816899;30;20212;-80
2023/12/24 06:46:16;;;;;;;14.53;6.10;;;-0.20;99.90;;;;;;9805093;30;20205;-80
2023/12/24 06:51:37;;;;;;;11.47;5.50;;;-0.20;99.90;;;;;;9818172;30;20245;-80
2023/12/24 06:56:58;;;;;;;12.00;5.93;;;-0.10;1.00;;;;;;9805191;30;20579;-81
2023/12/24 07:02:20;;;;;;;15.77;7.17;;;-0.10;1.00;;;;;;9804696;30;20232;-86
2023/12/24 07:07:41;;;;;;;14.63;7.03;;;-0.10;1.00;;;;;;9804195;30;20220;-81
2023/12/24 07:13:03;;;;;;;21.97;12.00;;;0.00;1.00;;;;;;9804561;30;20230;-80
2023/12/24 07:18:24;;;;;;;43.10;23.77;;;0.10;99.90;;;;;;9816913;30;20240;-81
2023/12/24 07:23:45;;;;;;;28.37;14.97;;;0.20;1.00;;;;;;9817663;30;20223;-80
2023/12/24 07:29:06;;;;;;;16.23;8.67;;;0.20;99.90;;;;;;9816673;30;20409;-82
2023/12/24 07:34:27;;;;;;;11.37;6.30;;;0.30;1.00;;;;;;9806927;30;20234;-80
2023/12/24 07:39:49;;;;;;;13.47;6.67;;;0.30;1.00;;;;;;9801324;30;20437;-80
2023/12/24 07:45:11;;;;;;;18.73;8.43;;;0.40;1.00;;;;;;9814040;30;20215;-80
2023/12/24 07:50:32;;;;;;;60.43;28.27;;;0.50;99.90;;;;;;9810650;30;20251;-80
2023/12/24 07:55:53;;;;;;;53.83;25.70;;;0.50;99.90;;;;;;9810891;30;20306;-80
2023/12/24 08:01:16;;;;;;;20.73;11.77;;;0.60;1.00;;;;;;9798618;30;20241;-88
2023/12/24 08:06:37;;;;;;;17.17;9.87;;;0.70;99.90;;;;;;9822629;30;20258;-80
2023/12/24 08:11:59;;;;;;;18.73;10.37;;;0.80;99.90;;;;;;9805938;30;20293;-79
2023/12/24 08:17:20;;;;;;;18.50;11.73;;;0.80;1.00;;;;;;9806283;30;20264;-81
2023/12/24 08:22:42;;;;;;;15.43;7.43;;;0.90;1.00;;;;;;9822263;30;20210;-81
2023/12/24 08:28:06;;;;;;;20.07;9.13;;;1.00;99.90;;;;;;9810045;30;20398;-82
2023/12/24 08:33:27;;;;;;;29.83;13.17;;;1.10;99.90;;;;;;9809995;30;20226;-81
2023/12/24 08:38:49;;;;;;;19.97;9.87;;;1.10;1.00;;;;;;9797510;30;20222;-88
2023/12/24 08:44:10;;;;;;;24.13;12.30;;;1.20;99.90;;;;;;9797620;30;20282;-82
2023/12/24 08:49:32;;;;;;;22.17;9.50;;;1.20;99.90;;;;;;9808551;30;20267;-79
2023/12/24 08:54:53;;;;;;;22.50;10.67;;;1.30;1.00;;;;;;9822206;30;20234;-82
2023/12/24 09:00:15;;;;;;;19.97;11.03;;;1.50;1.00;;;;;;9808972;30;20208;-81
2023/12/24 09:05:36;;;;;;;24.63;12.70;;;1.50;1.00;;;;;;9819509;30;20199;-80
2023/12/24 09:10:58;;;;;;;53.17;17.07;;;1.50;1.00;;;;;;9795233;30;20207;-80
2023/12/24 09:16:19;;;;;;;55.43;21.60;;;1.60;1.00;;;;;;9808157;30;20246;-80
2023/12/24 09:21:41;;;;;;;37.77;16.73;;;1.70;1.00;;;;;;9808305;30;20278;-80
2023/12/24 09:27:02;;;;;;;39.57;16.47;;;1.80;1.00;;;;;;9807952;30;20261;-80
2023/12/24 09:32:24;;;;;;;27.53;14.00;;;1.80;1.00;;;;;;9819519;30;20434;-79
2023/12/24 09:37:45;;;;;;;41.07;17.27;;;1.90;1.00;;;;;;9796250;30;20215;-81
2023/12/24 09:43:06;;;;;;;31.43;16.20;;;1.90;1.00;;;;;;9806532;30;20222;-81
2023/12/24 09:48:27;;;;;;;29.20;15.30;;;1.90;99.90;;;;;;9811823;30;20449;-80
2023/12/24 09:53:49;;;;;;;35.07;15.87;;;1.90;1.00;;;;;;9809307;30;20237;-81
2023/12/24 09:59:10;;;;;;;34.57;13.40;;;2.00;99.90;;;;;;9806225;30;20290;-80
2023/12/24 10:04:31;;;;;;;32.57;13.97;;;2.10;1.00;;;;;;9806160;30;20528;-82
2023/12/24 10:09:53;;;;;;;32.20;14.70;;;2.10;1.00;;;;;;9794340;30;20205;-80
2023/12/24 10:15:20;;;;;;;31.60;14.40;;;2.10;99.90;;;;;;9799028;30;20251;-82
2023/12/24 10:20:41;;;;;;;26.53;10.57;;;2.20;99.90;;;;;;9818369;30;20533;-81
2023/12/24 10:26:04;;;;;;;20.87;9.90;;;2.10;99.90;;;;;;9805770;30;20590;-81
2023/12/24 10:31:27;;;;;;;16.37;9.53;;;2.20;1.00;;;;;;9805601;30;20213;-83
2023/12/24 10:36:48;;;;;;;18.70;9.73;;;2.20;1.00;;;;;;9805795;30;20211;-86
2023/12/24 10:42:10;;;;;;;23.80;9.33;;;2.30;1.00;;;;;;9817258;30;20215;-81
2023/12/24 10:47:31;;;;;;;16.70;7.73;;;2.30;1.00;;;;;;9818038;30;20247;-80
2023/12/24 10:52:53;;;;;;;12.80;7.20;;;2.30;1.00;;;;;;9792997;30;20334;-80
2023/12/24 10:58:45;;;;;;;12.97;7.13;;;2.40;1.00;;;;;;9792743;30;20372;-81
2023/12/24 11:04:07;;;;;;;18.87;8.60;;;2.40;41.40;;;;;;9804675;30;20556;-82
2023/12/24 11:09:30;;;;;;;17.63;7.83;;;2.30;1.00;;;;;;9807656;30;20561;-84
2023/12/24 11:14:51;;;;;;;15.57;8.13;;;2.30;59.90;;;;;;9812127;30;20234;-85
2023/12/24 11:20:25;;;;;;;14.93;8.20;;;2.30;1.00;;;;;;9824593;30;20421;-79
2023/12/24 11:25:48;;;;;;;16.83;8.63;;;2.30;1.00;;;;;;9824181;30;20211;-79
2023/12/24 11:31:09;;;;;;;21.37;8.60;;;2.20;1.00;;;;;;9823462;30;20207;-79
2023/12/24 11:36:30;;;;;;;21.23;10.17;;;2.20;1.00;;;;;;9811712;30;20238;-81
2023/12/24 11:41:52;;;;;;;31.37;15.90;;;2.20;99.90;;;;;;9798690;30;20226;-85
2023/12/24 11:47:19;;;;;;;64.13;33.97;;;2.20;1.00;;;;;;9823898;30;20253;-86
2023/12/24 11:52:46;;;;;;;53.73;28.10;;;2.20;99.90;;;;;;9823562;30;20238;-86
2023/12/24 11:58:08;;;;;;;16.60;9.47;;;2.20;1.00;;;;;;9823445;30;20226;-80
2023/12/24 12:03:31;;;;;;;17.60;8.80;;;2.20;99.90;;;;;;9810103;30;20387;-80
2023/12/24 12:08:52;;;;;;;14.03;6.70;;;2.10;1.00;;;;;;9810644;30;20429;-79
2023/12/24 12:14:15;;;;;;;22.03;11.67;;;2.00;1.00;;;;;;9797293;30;20238;-79
2023/12/24 12:19:37;;;;;;;18.03;10.20;;;1.90;99.90;;;;;;9821447;30;20250;-79
2023/12/24 12:24:58;;;;;;;18.73;10.00;;;2.00;1.00;;;;;;9809688;30;20528;-80
2023/12/24 12:30:19;;;;;;;14.20;7.83;;;2.00;1.00;;;;;;9805615;30;20220;-79
2023/12/24 12:35:41;;;;;;;6.80;4.47;;;2.00;99.90;;;;;;9788026;30;20608;-79
2023/12/24 12:41:04;;;;;;;9.40;6.20;;;1.90;1.00;;;;;;9785175;30;20208;-80
2023/12/24 12:46:26;;;;;;;23.60;12.17;;;1.90;1.00;;;;;;9773188;30;20217;-81
2023/12/24 12:51:49;;;;;;;15.87;9.87;;;1.90;1.00;;;;;;9772759;30;20538;-80
2023/12/24 12:57:28;;;;;;;11.93;6.20;;;1.90;1.00;;;;;;9784823;30;20215;-81
2023/12/24 13:02:50;;;;;;;13.93;8.93;;;1.90;1.00;;;;;;9795017;30;20214;-79
2023/12/24 13:08:16;;;;;;;23.97;12.33;;;1.90;1.00;;;;;;9808200;30;20493;-79
2023/12/24 13:13:38;;;;;;;17.27;8.73;;;1.90;99.90;;;;;;9820231;30;20236;-82
2023/12/24 13:19:17;;;;;;;20.37;8.20;;;1.80;99.90;;;;;;9807933;30;20207;-79
2023/12/24 13:24:38;;;;;;;18.13;9.67;;;1.90;68.10;;;;;;9820127;30;20206;-79
2023/12/24 13:30:00;;;;;;;24.57;10.93;;;1.80;1.00;;;;;;9773502;30;20218;-79
2023/12/24 13:35:21;;;;;;;19.47;8.83;;;1.70;1.00;;;;;;9809895;30;20246;-78
2023/12/24 13:40:43;;;;;;;31.20;15.40;;;1.70;23.40;;;;;;9819810;30;20389;-82
2023/12/24 13:46:04;;;;;;;19.70;9.27;;;1.60;1.00;;;;;;9807231;30;20211;-82
2023/12/24 13:51:25;;;;;;;20.10;8.47;;;1.50;1.00;;;;;;9820329;30;20246;-86
2023/12/24 13:56:46;;;;;;;21.00;9.20;;;1.60;1.00;;;;;;9806960;30;20242;-84
2023/12/24 14:02:08;;;;;;;23.83;9.97;;;1.60;1.00;;;;;;9793312;30;20223;-87
2023/12/24 14:07:30;;;;;;;18.87;10.73;;;1.50;99.90;;;;;;9806765;30;20218;-81
2023/12/24 14:12:54;;;;;;;11.87;6.87;;;1.50;99.90;;;;;;9793988;30;20251;-79
2023/12/24 14:18:15;;;;;;;8.90;5.57;;;1.40;1.00;;;;;;9819323;30;20203;-88
2023/12/24 14:23:36;;;;;;;12.07;7.27;;;1.50;1.00;;;;;;9806695;30;20207;-81
2023/12/24 14:28:58;;;;;;;23.07;10.33;;;1.50;1.00;;;;;;9818403;30;20214;-84
2023/12/24 14:34:19;;;;;;;15.13;9.23;;;1.50;99.90;;;;;;9795210;30;20291;-86
2023/12/24 14:39:40;;;;;;;16.97;9.87;;;1.50;1.00;;;;;;9794236;30;20212;-85
2023/12/24 14:45:03;;;;;;;26.87;13.30;;;1.60;1.00;;;;;;9793174;30;20292;-83
2023/12/24 14:50:24;;;;;;;10.20;6.63;;;1.60;99.90;;;;;;9805073;30;20276;-81
2023/12/24 14:55:46;;;;;;;20.50;9.57;;;1.60;99.90;;;;;;9817539;30;20254;-82
2023/12/24 15:01:10;;;;;;;15.43;7.67;;;1.60;99.90;;;;;;9817085;30;20207;-81
2023/12/24 15:06:31;;;;;;;33.90;14.27;;;1.60;99.90;;;;;;9817595;30;20202;-80
2023/12/24 15:11:52;;;;;;;30.33;13.93;;;1.60;99.90;;;;;;9817552;30;20387;-82
2023/12/24 15:17:15;;;;;;;17.00;8.87;;;1.60;99.90;;;;;;9792617;30;20289;-83
2023/12/24 15:22:37;;;;;;;32.77;14.40;;;1.60;99.90;;;;;;9802537;30;20275;-84
2023/12/24 15:27:58;;;;;;;19.23;9.03;;;1.60;1.00;;;;;;9804892;30;20206;-81
2023/12/24 15:33:19;;;;;;;18.53;9.90;;;1.60;1.00;;;;;;9816983;30;20246;-83
2023/12/24 15:38:41;;;;;;;76.37;25.37;;;1.50;1.00;;;;;;9792328;30;20214;-88
2023/12/24 15:44:02;;;;;;;131.30;35.00;;;1.60;1.00;;;;;;9792767;30;20255;-81
2023/12/24 15:49:24;;;;;;;65.77;22.77;;;1.60;1.00;;;;;;9804590;30;20534;-81
2023/12/24 15:54:45;;;;;;;107.17;31.23;;;1.50;1.00;;;;;;9793640;30;20230;-82
2023/12/24 16:00:08;;;;;;;34.70;18.90;;;1.40;1.00;;;;;;9810869;30;20260;-84
2023/12/24 16:05:30;;;;;;;117.43;35.67;;;1.50;1.00;;;;;;9807236;30;20268;-82
2023/12/24 16:10:51;;;;;;;244.70;52.83;;;1.50;1.00;;;;;;9824389;30;20450;-81
2023/12/24 16:16:12;;;;;;;293.37;62.67;;;1.60;1.00;;;;;;9811770;30;20241;-82
2023/12/24 16:21:38;;;;;;;137.47;38.80;;;1.50;1.00;;;;;;9786248;30;20204;-84
2023/12/24 16:27:00;;;;;;;61.33;23.77;;;1.60;1.00;;;;;;9787964;30;20256;-81
2023/12/24 16:32:22;;;;;;;57.87;23.53;;;1.60;1.00;;;;;;9799256;30;20223;-80
2023/12/24 16:37:46;;;;;;;40.73;20.63;;;1.70;1.00;;;;;;9811409;30;20294;-83
2023/12/24 16:43:07;;;;;;;53.70;24.43;;;1.60;1.00;;;;;;9800126;30;20241;-83
2023/12/24 16:48:28;;;;;;;77.47;33.17;;;1.70;1.00;;;;;;9814892;30;20253;-82
2023/12/24 16:53:50;;;;;;;53.83;27.97;;;1.70;1.00;;;;;;9817822;30;20568;-80
2023/12/24 16:59:12;;;;;;;43.90;23.50;;;1.70;1.00;;;;;;9826723;30;20205;-80
2023/12/24 17:04:35;;;;;;;23.87;13.90;;;1.60;1.00;;;;;;9821648;30;20436;-79
2023/12/24 17:09:56;;;;;;;25.83;17.30;;;1.70;99.90;;;;;;9808493;30;20211;-84
2023/12/24 17:15:19;;;;;;;16.73;11.87;;;1.80;99.90;;;;;;9821478;30;20246;-83
2023/12/24 17:20:40;;;;;;;18.33;9.20;;;1.70;99.90;;;;;;9776653;30;20254;-83
2023/12/24 17:26:02;;;;;;;27.67;15.50;;;1.80;99.90;;;;;;9785349;30;20204;-80
2023/12/24 17:31:23;;;;;;;51.60;20.63;;;1.90;99.90;;;;;;9784298;30;20429;-83
2023/12/24 17:36:45;;;;;;;22.80;12.67;;;2.00;99.90;;;;;;9793136;30;20321;-82
2023/12/24 17:42:06;;;;;;;12.97;7.53;;;2.00;99.90;;;;;;9807480;30;20406;-79
2023/12/24 17:47:28;;;;;;;10.93;5.87;;;2.00;99.90;;;;;;9819284;30;20293;-81
2023/12/24 17:52:50;;;;;;;5.57;3.20;;;2.00;99.90;;;;;;9819220;30;20302;-79
2023/12/24 17:58:11;;;;;;;9.00;5.30;;;2.10;99.90;;;;;;9806953;30;20232;-79
2023/12/24 18:03:33;;;;;;;11.37;6.30;;;2.20;99.90;;;;;;9818972;30;20228;-82
2023/12/24 18:08:54;;;;;;;6.60;4.97;;;2.20;99.90;;;;;;9815946;30;20210;-81
2023/12/24 18:14:15;;;;;;;6.93;5.03;;;2.30;99.90;;;;;;9818127;30;20428;-84
2023/12/24 18:19:37;;;;;;;9.43;6.60;;;2.40;99.90;;;;;;9805572;30;20464;-80
2023/12/24 18:24:58;;;;;;;10.77;6.80;;;2.30;99.90;;;;;;9806357;30;20211;-86
2023/12/24 18:30:19;;;;;;;9.40;5.80;;;2.30;99.90;;;;;;9818441;30;20211;-83
2023/12/24 18:35:40;;;;;;;16.57;7.83;;;2.40;99.90;;;;;;9818437;30;20285;-81
2023/12/24 18:41:02;;;;;;;12.57;7.10;;;2.40;99.90;;;;;;9805955;30;20210;-83
2023/12/24 18:46:23;;;;;;;17.67;7.90;;;2.50;99.90;;;;;;9817594;30;20375;-82
2023/12/24 18:51:44;;;;;;;16.93;8.07;;;2.50;99.90;;;;;;9805301;30;20320;-80
2023/12/24 18:57:06;;;;;;;24.90;9.20;;;2.60;99.90;;;;;;9816661;30;20232;-83
2023/12/24 19:02:27;;;;;;;11.37;5.90;;;2.60;99.90;;;;;;9804528;30;20212;-85
2023/12/24 19:07:48;;;;;;;9.63;5.30;;;2.70;99.90;;;;;;9817180;30;20221;-80
2023/12/24 19:13:10;;;;;;;8.30;5.20;;;2.80;99.90;;;;;;9791850;30;20243;-80
2023/12/24 19:18:31;;;;;;;9.90;6.30;;;2.90;99.90;;;;;;9817168;30;20207;-80
2023/12/24 19:23:52;;;;;;;8.20;5.27;;;3.00;99.90;;;;;;9804640;30;20216;-80
2023/12/24 19:29:14;;;;;;;7.17;5.10;;;3.00;99.90;;;;;;9804934;30;20207;-82
2023/12/24 19:34:36;;;;;;;9.40;5.50;;;3.10;99.90;;;;;;9824286;30;20242;-80
2023/12/24 19:39:57;;;;;;;12.50;7.00;;;3.30;99.90;;;;;;9823990;30;20218;-80
2023/12/24 19:45:19;;;;;;;7.53;5.33;;;3.50;99.90;;;;;;9823459;30;20242;-83
2023/12/24 19:50:40;;;;;;;8.27;5.70;;;3.80;99.90;;;;;;9823260;30;20247;-81
2023/12/24 19:56:02;;;;;;;7.43;4.90;;;4.10;99.90;;;;;;9819550;30;20233;-80
2023/12/24 20:01:23;;;;;;;4.77;3.50;;;4.30;99.90;;;;;;9823684;30;20502;-80
2023/12/24 20:06:48;;;;;;;4.90;3.60;;;4.50;99.90;;;;;;9798755;30;20233;-80
2023/12/24 20:12:09;;;;;;;5.30;3.87;;;4.70;99.90;;;;;;9822523;30;20216;-83
2023/12/24 20:17:31;;;;;;;5.80;4.27;;;4.90;99.90;;;;;;9809864;30;20236;-81
2023/12/24 20:22:52;;;;;;;6.30;3.83;;;5.10;99.90;;;;;;9823489;30;20351;-80
2023/12/24 20:28:13;;;;;;;3.73;3.07;;;5.30;99.90;;;;;;9820284;30;20510;-82
2023/12/24 20:33:34;;;;;;;4.60;3.03;;;5.30;99.90;;;;;;9821797;30;20470;-80
2023/12/24 20:38:55;;;;;;;4.63;3.33;;;5.40;99.90;;;;;;9822392;30;20212;-85
2023/12/24 20:44:17;;;;;;;4.40;2.80;;;5.40;99.90;;;;;;9797368;30;20273;-89
2023/12/24 20:49:38;;;;;;;9.77;4.33;;;5.50;99.90;;;;;;9810388;30;20248;-84
2023/12/24 20:54:59;;;;;;;7.17;3.63;;;5.50;99.90;;;;;;9809011;30;20233;-81
2023/12/24 21:00:21;;;;;;;4.23;3.23;;;5.50;99.90;;;;;;9819185;30;20247;-84
2023/12/24 21:05:43;;;;;;;5.13;3.87;;;5.50;99.90;;;;;;9796604;30;20235;-80
2023/12/24 21:11:05;;;;;;;4.43;3.33;;;5.50;99.90;;;;;;9821372;30;20214;-88
2023/12/24 21:16:26;;;;;;;3.83;3.10;;;5.60;99.90;;;;;;9809107;30;20237;-87
2023/12/24 21:21:47;;;;;;;4.13;3.10;;;5.60;99.90;;;;;;9799640;30;20210;-86
2023/12/24 21:27:09;;;;;;;2.97;2.50;;;5.80;99.90;;;;;;9812406;30;20299;-81
2023/12/24 21:32:30;;;;;;;2.67;2.43;;;5.80;99.90;;;;;;9808316;30;20209;-88
2023/12/24 21:37:54;;;;;;;3.30;2.40;;;5.70;99.90;;;;;;9821592;30;20233;-89
2023/12/24 21:43:15;;;;;;;5.80;3.73;;;5.80;99.90;;;;;;9808509;30;20251;-88
2023/12/24 21:48:37;;;;;;;3.60;2.43;;;5.90;99.90;;;;;;9808130;30;20321;-86
2023/12/24 21:53:59;;;;;;;9.00;4.07;;;6.00;99.90;;;;;;9795028;30;20409;-82
2023/12/24 21:59:20;;;;;;;3.10;1.70;;;6.10;99.90;;;;;;9820033;30;20210;-83
2023/12/24 22:04:41;;;;;;;1.40;1.10;;;6.20;99.90;;;;;;9820629;30;20202;-82
2023/12/24 22:10:02;;;;;;;1.30;1.00;;;6.20;99.90;;;;;;9806976;30;20280;-83
2023/12/24 22:15:23;;;;;;;4.60;2.10;;;6.40;99.90;;;;;;9806014;30;20264;-86
2023/12/24 22:20:45;;;;;;;1.47;0.90;;;6.30;99.90;;;;;;9818776;30;20213;-87
2023/12/24 22:26:09;;;;;;;2.53;1.20;;;6.30;99.90;;;;;;9818977;30;20215;-85
2023/12/24 22:31:31;;;;;;;6.53;1.30;;;6.40;99.90;;;;;;9820072;30;20431;-85
2023/12/24 22:36:52;;;;;;;5.17;1.50;;;6.70;99.90;;;;;;9819448;30;20259;-80
2023/12/24 22:42:13;;;;;;;1.03;0.70;;;6.90;99.90;;;;;;9793962;30;20302;-82
2023/12/24 22:47:34;;;;;;;5.23;0.67;;;7.10;99.90;;;;;;9818849;30;20250;-83
2023/12/24 22:53:00;;;;;;;9.60;1.27;;;7.10;99.90;;;;;;9818504;30;20214;-85
2023/12/24 22:58:22;;;;;;;3.13;0.70;;;7.30;99.90;;;;;;9817630;30;20214;-89
2023/12/24 23:03:42;;;;;;;10.33;1.37;;;7.10;99.90;;;;;;9817771;30;20202;-84
2023/12/24 23:09:04;;;;;;;6.87;1.50;;;7.00;99.90;;;;;;9817446;30;20232;-80
2023/12/24 23:14:25;;;;;;;7.27;1.00;;;6.90;99.90;;;;;;9804444;30;20271;-82
2023/12/24 23:19:48;;;;;;;4.03;1.30;;;6.90;99.90;;;;;;9804703;30;20516;-82
2023/12/24 23:25:09;;;;;;;10.27;1.10;;;6.80;99.90;;;;;;9817576;30;20280;-83
2023/12/24 23:30:31;;;;;;;2.80;0.67;;;6.80;99.90;;;;;;9805025;30;20526;-87
2023/12/24 23:35:52;;;;;;;5.63;1.40;;;6.70;99.90;;;;;;9817771;30;20334;-83
2023/12/24 23:41:13;;;;;;;5.33;1.50;;;6.50;99.90;;;;;;9818472;30;20223;-80
2023/12/24 23:46:35;;;;;;;4.87;0.60;;;6.50;99.90;;;;;;9817834;30;20278;-79
2023/12/24 23:51:56;;;;;;;4.97;1.20;;;6.40;99.90;;;;;;9818396;30;20255;-82
2023/12/24 23:57:17;;;;;;;4.50;0.83;;;6.40;99.90;;;;;;9816316;30;20264;-81
